Time;durP1;ratioP1;P1;durP2;ratioP2;P2;SDS_P1;SDS_P2;PMS_P1;PMS_P2;Temp;Humidity;BMP_temperature;BMP_pressure;BME280_temperature;BME280_humidity;BME280_pressure;Samples;Min_cycle;Max_cycle;Signal;HPM_P1;HPM_P2
2021/11/28 00:00:54;;;;;;;30.15;15.21;;;;;;;;;;352842;150;866699;-58
2021/11/28 00:01:55;;;;;;;30.76;15.23;;;;;;;;;;354745;148;857340;-59
2021/11/28 00:02:57;;;;;;;33.86;15.36;;;;;;;;;;354575;149;858720;-58
2021/11/28 00:03:59;;;;;;;33.79;14.98;;;;;;;;;;350334;151;864871;-58
2021/11/28 00:05:00;;;;;;;34.03;16.21;;;;;;;;;;350561;150;866148;-61
2021/11/28 00:06:05;;;;;;;29.63;14.87;;;;;;;;;;354723;148;857169;-58
2021/11/28 00:07:11;;;;;;;32.08;16.13;;;;;;;;;;365163;145;859336;-59
2021/11/28 00:08:23;;;;;;;33.67;15.09;;;;;;;;;;365666;146;857221;-59
2021/11/28 00:11:34;;;;;;;30.71;14.94;;;;;;;;;;367027;146;857650;-59
2021/11/28 00:12:44;;;;;;;27.90;14.73;;;;;;;;;;365533;146;857392;-60
2021/11/28 00:14:46;;;;;;;27.67;13.41;;;;;;;;;;365294;147;857744;-58
2021/11/28 00:15:48;;;;;;;33.97;13.87;;;;;;;;;;363191;146;864633;-57
2021/11/28 00:16:50;;;;;;;25.68;14.43;;;;;;;;;;363204;146;858694;-58
2021/11/28 00:17:51;;;;;;;25.48;13.59;;;;;;;;;;361759;147;864902;-59
2021/11/28 00:18:53;;;;;;;24.26;14.05;;;;;;;;;;363520;146;866296;-59
2021/11/28 00:19:55;;;;;;;29.37;14.06;;;;;;;;;;354933;149;865128;-59
2021/11/28 00:20:56;;;;;;;28.87;15.21;;;;;;;;;;364626;146;864979;-59
2021/11/28 00:21:58;;;;;;;35.41;16.60;;;;;;;;;;365432;147;859394;-59
2021/11/28 00:22:59;;;;;;;30.27;15.68;;;;;;;;;;365436;147;864873;-58
2021/11/28 00:24:01;;;;;;;29.78;15.63;;;;;;;;;;361742;145;865128;-58
2021/11/28 00:25:04;;;;;;;28.49;14.40;;;;;;;;;;365746;147;865175;-58
2021/11/28 00:26:07;;;;;;;23.58;13.40;;;;;;;;;;365195;146;865773;-58
2021/11/28 00:27:08;;;;;;;29.37;15.43;;;;;;;;;;362675;145;858424;-59
2021/11/28 00:28:13;;;;;;;34.60;15.53;;;;;;;;;;365704;147;866205;-59
2021/11/28 00:29:14;;;;;;;28.58;15.31;;;;;;;;;;364089;147;865006;-59
2021/11/28 00:30:18;;;;;;;31.69;14.97;;;;;;;;;;363587;146;859233;-59
2021/11/28 00:31:20;;;;;;;30.03;14.87;;;;;;;;;;365894;145;864966;-59
2021/11/28 00:32:21;;;;;;;28.54;14.94;;;;;;;;;;367410;146;866359;-59
2021/11/28 00:33:23;;;;;;;27.16;14.61;;;;;;;;;;363744;146;857289;-59
2021/11/28 00:34:24;;;;;;;28.92;15.07;;;;;;;;;;363556;145;865673;-59
2021/11/28 00:35:26;;;;;;;30.20;15.05;;;;;;;;;;364845;146;864017;-59
2021/11/28 00:36:28;;;;;;;30.01;15.36;;;;;;;;;;363471;144;866679;-59
2021/11/28 00:37:30;;;;;;;32.41;16.07;;;;;;;;;;364426;145;859331;-59
2021/11/28 00:38:31;;;;;;;28.40;16.04;;;;;;;;;;360972;147;864879;-59
2021/11/28 00:39:33;;;;;;;31.03;16.79;;;;;;;;;;365901;147;865699;-59
2021/11/28 00:40:35;;;;;;;33.26;16.91;;;;;;;;;;360562;146;865095;-61
2021/11/28 00:41:36;;;;;;;30.04;14.94;;;;;;;;;;363137;145;866989;-59
2021/11/28 00:42:38;;;;;;;30.34;16.55;;;;;;;;;;365869;147;865143;-60
2021/11/28 00:43:40;;;;;;;33.84;16.04;;;;;;;;;;364878;146;865184;-60
2021/11/28 00:44:42;;;;;;;32.82;16.15;;;;;;;;;;363974;146;865089;-59
2021/11/28 00:45:44;;;;;;;31.62;16.68;;;;;;;;;;357212;149;858095;-59
2021/11/28 00:46:46;;;;;;;33.93;16.35;;;;;;;;;;366097;147;857157;-59
2021/11/28 00:47:47;;;;;;;37.56;17.80;;;;;;;;;;361924;147;857215;-59
2021/11/28 00:48:49;;;;;;;39.29;17.49;;;;;;;;;;364818;145;865623;-59
2021/11/28 00:52:21;;;;;;;38.82;18.78;;;;;;;;;;363152;145;858475;-59
2021/11/28 00:53:22;;;;;;;36.81;17.34;;;;;;;;;;365748;146;858024;-59
2021/11/28 00:54:25;;;;;;;36.92;18.19;;;;;;;;;;365440;146;867116;-60
2021/11/28 00:55:26;;;;;;;40.11;18.40;;;;;;;;;;365853;146;866866;-59
2021/11/28 00:56:28;;;;;;;48.24;19.28;;;;;;;;;;361205;145;857848;-59
2021/11/28 00:57:30;;;;;;;44.01;20.46;;;;;;;;;;365358;146;866671;-59
2021/11/28 00:58:31;;;;;;;44.04;19.84;;;;;;;;;;363198;146;865091;-59
2021/11/28 00:59:33;;;;;;;43.21;19.18;;;;;;;;;;365257;145;865052;-60
2021/11/28 01:00:35;;;;;;;44.96;19.21;;;;;;;;;;356389;150;865962;-59
2021/11/28 01:01:36;;;;;;;47.98;20.58;;;;;;;;;;365695;146;866027;-59
2021/11/28 01:02:38;;;;;;;46.91;20.20;;;;;;;;;;364043;146;865218;-59
2021/11/28 01:03:40;;;;;;;51.90;20.04;;;;;;;;;;362961;146;865572;-59
2021/11/28 01:04:41;;;;;;;55.13;20.51;;;;;;;;;;367741;146;865102;-61
2021/11/28 01:05:43;;;;;;;47.85;20.69;;;;;;;;;;363052;145;867198;-59
2021/11/28 01:06:45;;;;;;;52.91;19.10;;;;;;;;;;362473;145;859290;-60
2021/11/28 01:07:46;;;;;;;50.16;20.29;;;;;;;;;;355671;149;864891;-59
2021/11/28 01:08:48;;;;;;;74.59;21.44;;;;;;;;;;351073;150;865776;-59
2021/11/28 01:09:49;;;;;;;52.68;21.69;;;;;;;;;;365576;145;864534;-59
2021/11/28 01:10:51;;;;;;;55.30;20.81;;;;;;;;;;367395;146;865090;-59
2021/11/28 01:11:53;;;;;;;50.03;21.56;;;;;;;;;;363426;146;865000;-59
2021/11/28 01:12:55;;;;;;;49.94;22.56;;;;;;;;;;362238;146;865029;-60
2021/11/28 01:13:57;;;;;;;45.37;19.60;;;;;;;;;;361257;145;864925;-59
2021/11/28 01:14:58;;;;;;;43.41;20.75;;;;;;;;;;359297;150;864766;-59
2021/11/28 01:16:00;;;;;;;43.62;19.68;;;;;;;;;;363196;147;861136;-59
2021/11/28 01:17:02;;;;;;;47.39;20.42;;;;;;;;;;364502;145;866734;-59
2021/11/28 01:18:03;;;;;;;44.73;19.93;;;;;;;;;;362434;146;865831;-58
2021/11/28 01:19:05;;;;;;;40.54;18.67;;;;;;;;;;366083;145;866505;-59
2021/11/28 01:20:08;;;;;;;42.21;19.59;;;;;;;;;;362172;146;865721;-60
2021/11/28 01:21:09;;;;;;;40.69;20.38;;;;;;;;;;362801;145;864801;-59
2021/11/28 01:22:11;;;;;;;44.24;21.09;;;;;;;;;;364831;147;864810;-60
2021/11/28 01:23:13;;;;;;;49.39;22.08;;;;;;;;;;363432;147;865495;-59
2021/11/28 01:24:15;;;;;;;52.11;22.68;;;;;;;;;;365032;145;857348;-59
2021/11/28 01:25:16;;;;;;;47.17;22.37;;;;;;;;;;363956;146;867485;-60
2021/11/28 01:26:18;;;;;;;43.13;19.85;;;;;;;;;;365928;146;865570;-59
2021/11/28 01:27:20;;;;;;;41.85;20.41;;;;;;;;;;362842;146;859435;-59
2021/11/28 01:28:21;;;;;;;41.94;19.90;;;;;;;;;;362591;145;864780;-59
2021/11/28 01:29:23;;;;;;;46.24;19.54;;;;;;;;;;365212;147;866657;-59
2021/11/28 01:30:25;;;;;;;41.20;19.11;;;;;;;;;;364846;146;864777;-59
2021/11/28 01:31:27;;;;;;;36.79;18.04;;;;;;;;;;362667;146;865780;-59
2021/11/28 01:32:28;;;;;;;37.84;19.62;;;;;;;;;;364129;147;857233;-59
2021/11/28 01:33:30;;;;;;;41.00;19.31;;;;;;;;;;362689;146;858572;-59
2021/11/28 01:34:32;;;;;;;34.17;18.24;;;;;;;;;;365934;145;857184;-59
2021/11/28 01:35:35;;;;;;;38.31;18.25;;;;;;;;;;364968;145;865219;-59
2021/11/28 01:36:37;;;;;;;37.66;18.44;;;;;;;;;;358580;149;865115;-59
2021/11/28 01:37:39;;;;;;;37.47;20.46;;;;;;;;;;358110;147;857735;-59
2021/11/28 01:38:40;;;;;;;41.99;22.11;;;;;;;;;;363466;145;857775;-59
2021/11/28 01:39:42;;;;;;;40.81;21.52;;;;;;;;;;366053;146;865487;-59
2021/11/28 01:40:45;;;;;;;36.31;19.29;;;;;;;;;;365582;147;864683;-59
2021/11/28 01:41:46;;;;;;;42.29;22.63;;;;;;;;;;362710;146;857197;-59
2021/11/28 01:42:53;;;;;;;39.90;21.19;;;;;;;;;;363994;145;858232;-59
2021/11/28 01:43:57;;;;;;;44.42;20.65;;;;;;;;;;357645;149;864855;-59
2021/11/28 01:44:58;;;;;;;43.86;22.56;;;;;;;;;;366669;146;860041;-58
2021/11/28 01:46:00;;;;;;;49.40;22.33;;;;;;;;;;363247;146;857235;-59
2021/11/28 01:47:02;;;;;;;59.24;25.78;;;;;;;;;;363762;146;857685;-59
2021/11/28 01:48:04;;;;;;;52.53;24.58;;;;;;;;;;361394;145;866436;-59
2021/11/28 01:49:08;;;;;;;60.29;26.62;;;;;;;;;;362090;146;865699;-60
2021/11/28 01:50:09;;;;;;;47.45;21.75;;;;;;;;;;364729;145;858594;-60
2021/11/28 01:51:11;;;;;;;54.11;24.46;;;;;;;;;;365055;147;857231;-60
2021/11/28 01:52:13;;;;;;;58.81;25.72;;;;;;;;;;365448;146;867126;-59
2021/11/28 01:53:19;;;;;;;52.84;24.06;;;;;;;;;;362981;145;857104;-59
2021/11/28 01:54:20;;;;;;;58.73;24.36;;;;;;;;;;366413;146;865034;-58
2021/11/28 01:55:23;;;;;;;55.26;26.25;;;;;;;;;;367612;146;857189;-59
2021/11/28 01:56:25;;;;;;;54.02;25.46;;;;;;;;;;363819;145;864931;-59
2021/11/28 01:57:27;;;;;;;53.51;27.42;;;;;;;;;;360651;145;857339;-59
2021/11/28 01:58:28;;;;;;;54.27;26.16;;;;;;;;;;363638;146;864975;-59
2021/11/28 01:59:30;;;;;;;51.63;25.34;;;;;;;;;;363421;146;857126;-59
2021/11/28 02:00:34;;;;;;;41.46;21.46;;;;;;;;;;362250;145;866915;-59
2021/11/28 02:01:36;;;;;;;45.05;21.75;;;;;;;;;;363377;146;865053;-58
2021/11/28 02:02:38;;;;;;;40.75;20.84;;;;;;;;;;365875;145;857375;-58
2021/11/28 02:03:41;;;;;;;43.14;19.44;;;;;;;;;;362048;146;858625;-58
2021/11/28 02:04:43;;;;;;;41.11;19.74;;;;;;;;;;363827;146;866611;-59
2021/11/28 02:05:46;;;;;;;43.21;20.97;;;;;;;;;;365962;147;865557;-59
2021/11/28 02:06:48;;;;;;;36.53;20.24;;;;;;;;;;360069;146;859135;-58
2021/11/28 02:07:50;;;;;;;37.47;20.15;;;;;;;;;;364140;145;864798;-57
2021/11/28 02:08:52;;;;;;;34.96;19.63;;;;;;;;;;365269;146;860200;-58
2021/11/28 02:09:54;;;;;;;39.32;20.17;;;;;;;;;;363728;145;864895;-58
2021/11/28 02:10:56;;;;;;;43.41;19.90;;;;;;;;;;362682;146;859053;-58
2021/11/28 02:11:57;;;;;;;39.21;20.11;;;;;;;;;;365245;145;865042;-58
2021/11/28 02:12:59;;;;;;;42.79;21.19;;;;;;;;;;365871;147;857143;-58
2021/11/28 02:14:00;;;;;;;40.05;20.09;;;;;;;;;;362242;147;866206;-58
2021/11/28 02:15:03;;;;;;;39.89;20.94;;;;;;;;;;363833;145;866463;-58
2021/11/28 02:16:04;;;;;;;42.78;20.47;;;;;;;;;;362276;147;864767;-58
2021/11/28 02:17:06;;;;;;;39.02;21.44;;;;;;;;;;363303;146;857279;-58
2021/11/28 02:18:12;;;;;;;49.10;23.90;;;;;;;;;;362491;145;865651;-58
2021/11/28 02:19:11;;;;;;;48.13;23.58;;;;;;;;;;356092;149;865490;-58
2021/11/28 02:20:14;;;;;;;50.65;25.33;;;;;;;;;;365836;145;865479;-58
2021/11/28 02:21:16;;;;;;;46.82;21.97;;;;;;;;;;362827;146;857666;-58
2021/11/28 02:22:17;;;;;;;48.58;23.81;;;;;;;;;;362010;145;859351;-59
2021/11/28 02:23:19;;;;;;;39.99;20.89;;;;;;;;;;364637;146;864931;-58
2021/11/28 02:24:21;;;;;;;35.01;19.21;;;;;;;;;;365561;147;865342;-59
2021/11/28 02:25:25;;;;;;;40.24;20.41;;;;;;;;;;364343;145;857824;-58
2021/11/28 02:26:27;;;;;;;41.79;20.70;;;;;;;;;;364910;146;866520;-59
2021/11/28 02:27:29;;;;;;;45.85;23.39;;;;;;;;;;366015;146;857281;-59
2021/11/28 02:28:31;;;;;;;45.29;22.17;;;;;;;;;;364855;146;857620;-59
2021/11/28 02:29:32;;;;;;;46.39;22.91;;;;;;;;;;360763;146;859486;-59
2021/11/28 02:30:34;;;;;;;42.35;22.09;;;;;;;;;;364765;146;857250;-60
2021/11/28 02:31:36;;;;;;;48.19;24.23;;;;;;;;;;363681;146;860675;-59
2021/11/28 02:32:37;;;;;;;50.10;22.74;;;;;;;;;;361906;145;865060;-60
2021/11/28 02:33:39;;;;;;;54.02;25.66;;;;;;;;;;364767;146;865615;-60
2021/11/28 02:34:41;;;;;;;45.61;23.06;;;;;;;;;;364380;147;864958;-59
2021/11/28 02:35:42;;;;;;;47.01;24.43;;;;;;;;;;363384;146;867224;-60
2021/11/28 02:36:44;;;;;;;50.06;26.24;;;;;;;;;;363451;145;859206;-59
2021/11/28 02:37:46;;;;;;;47.46;24.14;;;;;;;;;;365027;147;864793;-59
2021/11/28 02:38:47;;;;;;;45.69;24.04;;;;;;;;;;365078;146;865579;-60
2021/11/28 02:39:49;;;;;;;46.27;23.09;;;;;;;;;;362421;145;857694;-59
2021/11/28 02:40:51;;;;;;;45.14;24.02;;;;;;;;;;360127;146;865532;-60
2021/11/28 02:41:52;;;;;;;42.16;22.78;;;;;;;;;;364369;145;864909;-59
2021/11/28 02:42:54;;;;;;;52.52;25.32;;;;;;;;;;364330;144;857470;-59
2021/11/28 02:43:57;;;;;;;55.59;28.02;;;;;;;;;;364925;145;864875;-60
2021/11/28 02:44:58;;;;;;;41.89;21.82;;;;;;;;;;354937;149;864946;-60
2021/11/28 02:46:02;;;;;;;46.46;23.31;;;;;;;;;;363873;146;864706;-60
2021/11/28 02:47:04;;;;;;;40.36;21.45;;;;;;;;;;364002;145;865159;-59
2021/11/28 02:48:07;;;;;;;40.40;21.46;;;;;;;;;;364025;147;859019;-59
2021/11/28 02:49:08;;;;;;;42.74;21.21;;;;;;;;;;365878;146;864746;-59
2021/11/28 02:50:12;;;;;;;39.06;21.67;;;;;;;;;;364076;146;857218;-59
2021/11/28 02:51:14;;;;;;;42.84;21.66;;;;;;;;;;362482;145;860659;-60
2021/11/28 02:52:15;;;;;;;43.57;23.85;;;;;;;;;;360240;146;858594;-59
2021/11/28 02:53:17;;;;;;;46.48;24.90;;;;;;;;;;364077;145;866210;-60
2021/11/28 02:54:18;;;;;;;40.51;20.09;;;;;;;;;;362416;146;865384;-60
2021/11/28 02:55:25;;;;;;;34.59;19.57;;;;;;;;;;358718;149;858441;-60
2021/11/28 02:56:28;;;;;;;39.99;20.26;;;;;;;;;;363510;147;866419;-60
2021/11/28 02:57:29;;;;;;;33.88;19.74;;;;;;;;;;364760;144;857223;-59
2021/11/28 02:58:31;;;;;;;37.28;20.22;;;;;;;;;;362378;146;864531;-59
2021/11/28 02:59:33;;;;;;;39.79;20.07;;;;;;;;;;363138;146;866066;-60
2021/11/28 03:00:36;;;;;;;37.80;18.56;;;;;;;;;;361652;146;858228;-59
2021/11/28 03:01:38;;;;;;;34.47;19.04;;;;;;;;;;363050;145;865800;-59
2021/11/28 03:02:39;;;;;;;35.62;19.26;;;;;;;;;;363453;147;859363;-59
2021/11/28 03:03:41;;;;;;;37.20;21.18;;;;;;;;;;363296;145;866763;-59
2021/11/28 03:04:43;;;;;;;33.52;19.54;;;;;;;;;;364279;146;865671;-59
2021/11/28 03:05:44;;;;;;;38.84;22.04;;;;;;;;;;363853;146;864401;-59
2021/11/28 03:06:46;;;;;;;42.96;21.66;;;;;;;;;;365246;145;866253;-59
2021/11/28 03:07:48;;;;;;;41.81;22.06;;;;;;;;;;363502;146;864921;-59
2021/11/28 03:08:49;;;;;;;46.31;22.93;;;;;;;;;;362046;145;867231;-59
2021/11/28 03:09:51;;;;;;;43.82;22.32;;;;;;;;;;363611;146;864899;-60
2021/11/28 03:10:53;;;;;;;37.30;20.92;;;;;;;;;;363440;146;865326;-59
2021/11/28 03:11:55;;;;;;;40.33;21.39;;;;;;;;;;361687;146;865043;-58
2021/11/28 03:12:57;;;;;;;36.09;19.77;;;;;;;;;;363348;145;857319;-59
2021/11/28 03:13:59;;;;;;;35.78;19.89;;;;;;;;;;360945;147;866298;-59
2021/11/28 03:15:00;;;;;;;35.20;19.72;;;;;;;;;;361333;146;857056;-59
2021/11/28 03:16:03;;;;;;;35.09;18.34;;;;;;;;;;362583;145;866360;-60
2021/11/28 03:17:05;;;;;;;35.96;18.13;;;;;;;;;;363721;146;866037;-59
2021/11/28 03:18:11;;;;;;;33.11;19.05;;;;;;;;;;365478;147;857180;-59
2021/11/28 03:19:12;;;;;;;40.47;20.27;;;;;;;;;;362402;145;865064;-59
2021/11/28 03:20:15;;;;;;;36.59;21.19;;;;;;;;;;364608;146;857393;-59
2021/11/28 03:21:21;;;;;;;39.87;19.55;;;;;;;;;;363676;146;860256;-59
2021/11/28 03:22:23;;;;;;;35.95;20.03;;;;;;;;;;363125;146;857228;-59
2021/11/28 03:23:26;;;;;;;37.84;20.04;;;;;;;;;;363072;145;857971;-59
2021/11/28 03:24:28;;;;;;;44.46;22.17;;;;;;;;;;362190;147;865435;-56
2021/11/28 03:25:30;;;;;;;39.64;21.13;;;;;;;;;;364195;146;858203;-58
2021/11/28 03:26:37;;;;;;;38.73;21.22;;;;;;;;;;363414;146;864851;-59
2021/11/28 03:27:36;;;;;;;38.26;21.29;;;;;;;;;;362621;146;858816;-59
2021/11/28 03:28:39;;;;;;;40.40;20.59;;;;;;;;;;363709;146;858188;-59
2021/11/28 03:29:40;;;;;;;45.93;23.70;;;;;;;;;;363263;144;865787;-59
2021/11/28 03:30:43;;;;;;;47.11;23.40;;;;;;;;;;364490;145;857410;-60
2021/11/28 03:31:45;;;;;;;47.74;22.53;;;;;;;;;;363772;145;866334;-59
2021/11/28 03:32:47;;;;;;;45.59;23.23;;;;;;;;;;363385;145;858556;-57
2021/11/28 03:33:49;;;;;;;47.60;23.41;;;;;;;;;;363647;145;864918;-59
2021/11/28 03:34:50;;;;;;;43.56;24.16;;;;;;;;;;363056;147;865587;-57
2021/11/28 03:35:52;;;;;;;48.70;24.72;;;;;;;;;;363999;146;864954;-59
2021/11/28 03:36:55;;;;;;;49.09;25.14;;;;;;;;;;364347;145;857269;-59
2021/11/28 03:37:57;;;;;;;55.21;26.58;;;;;;;;;;364419;145;865808;-58
2021/11/28 03:38:58;;;;;;;57.78;27.76;;;;;;;;;;363109;146;859359;-58
2021/11/28 03:40:00;;;;;;;52.49;26.85;;;;;;;;;;362283;145;864686;-59
2021/11/28 03:41:01;;;;;;;50.11;26.22;;;;;;;;;;363400;145;866035;-59
2021/11/28 03:42:05;;;;;;;47.26;25.28;;;;;;;;;;361341;146;864924;-58
2021/11/28 03:43:06;;;;;;;55.78;26.93;;;;;;;;;;362649;146;865641;-60
2021/11/28 03:44:08;;;;;;;51.31;26.51;;;;;;;;;;362498;146;859509;-59
2021/11/28 03:45:11;;;;;;;53.72;26.38;;;;;;;;;;362602;146;865430;-59
2021/11/28 03:46:13;;;;;;;53.98;27.12;;;;;;;;;;363836;146;864524;-58
2021/11/28 03:47:15;;;;;;;54.19;27.09;;;;;;;;;;362961;146;857180;-59
2021/11/28 03:48:17;;;;;;;59.23;27.11;;;;;;;;;;362304;145;864556;-57
2021/11/28 03:49:19;;;;;;;57.48;28.34;;;;;;;;;;362331;146;857171;-58
2021/11/28 03:50:22;;;;;;;51.56;26.22;;;;;;;;;;364824;146;857263;-58
2021/11/28 03:51:23;;;;;;;54.79;27.18;;;;;;;;;;362867;144;857367;-59
2021/11/28 03:52:25;;;;;;;57.52;28.01;;;;;;;;;;364541;146;865162;-59
2021/11/28 03:53:27;;;;;;;57.38;28.80;;;;;;;;;;363665;146;857304;-58
2021/11/28 03:54:29;;;;;;;52.94;28.63;;;;;;;;;;361995;145;866403;-58
2021/11/28 03:55:30;;;;;;;60.24;27.97;;;;;;;;;;360858;145;866465;-58
2021/11/28 03:56:32;;;;;;;54.76;28.29;;;;;;;;;;363746;147;858962;-59
2021/11/28 03:57:34;;;;;;;52.74;26.32;;;;;;;;;;366676;145;857225;-57
2021/11/28 03:58:36;;;;;;;57.59;27.55;;;;;;;;;;361892;146;865901;-59
2021/11/28 03:59:37;;;;;;;61.03;27.35;;;;;;;;;;364493;146;857707;-58
2021/11/28 04:00:39;;;;;;;51.26;27.67;;;;;;;;;;363968;146;859863;-58
2021/11/28 04:01:41;;;;;;;55.06;29.23;;;;;;;;;;362676;146;857802;-58
2021/11/28 04:02:43;;;;;;;61.35;29.14;;;;;;;;;;363464;146;865498;-58
2021/11/28 04:03:44;;;;;;;55.69;27.74;;;;;;;;;;360901;146;857215;-58
2021/11/28 04:04:46;;;;;;;50.59;26.20;;;;;;;;;;356875;149;865300;-57
2021/11/28 04:05:48;;;;;;;55.61;27.67;;;;;;;;;;362569;146;864683;-58
2021/11/28 04:06:49;;;;;;;49.01;25.68;;;;;;;;;;365737;145;865854;-58
2021/11/28 04:07:51;;;;;;;52.83;27.46;;;;;;;;;;363650;146;864833;-58
2021/11/28 04:08:53;;;;;;;48.40;26.73;;;;;;;;;;364798;145;866816;-58
2021/11/28 04:09:54;;;;;;;45.29;25.76;;;;;;;;;;363460;145;859179;-57
2021/11/28 04:10:56;;;;;;;47.37;25.80;;;;;;;;;;363940;147;864977;-58
2021/11/28 04:11:58;;;;;;;52.21;25.73;;;;;;;;;;362312;146;866346;-58
2021/11/28 04:12:59;;;;;;;52.16;26.69;;;;;;;;;;362998;145;864827;-58
2021/11/28 04:14:01;;;;;;;52.45;28.06;;;;;;;;;;364401;146;864944;-58
2021/11/28 04:15:03;;;;;;;47.21;26.19;;;;;;;;;;364231;145;864854;-58
2021/11/28 04:16:05;;;;;;;50.03;25.89;;;;;;;;;;365012;145;858987;-58
2021/11/28 04:17:06;;;;;;;47.86;24.88;;;;;;;;;;364542;145;857627;-58
2021/11/28 04:18:08;;;;;;;50.16;26.30;;;;;;;;;;364588;147;866771;-59
2021/11/28 04:19:09;;;;;;;48.66;25.21;;;;;;;;;;365284;146;865062;-57
2021/11/28 04:20:11;;;;;;;50.83;25.31;;;;;;;;;;363567;144;866793;-58
2021/11/28 04:21:13;;;;;;;47.93;24.46;;;;;;;;;;363459;146;857253;-57
2021/11/28 04:22:15;;;;;;;49.62;25.01;;;;;;;;;;364250;145;865208;-59
2021/11/28 04:23:17;;;;;;;42.60;23.23;;;;;;;;;;362686;147;859176;-59
2021/11/28 04:24:19;;;;;;;42.49;23.40;;;;;;;;;;363892;146;864951;-59
2021/11/28 04:25:21;;;;;;;43.35;23.71;;;;;;;;;;364545;146;857377;-59
2021/11/28 04:26:24;;;;;;;50.17;25.89;;;;;;;;;;364592;146;864921;-59
2021/11/28 04:27:25;;;;;;;49.98;25.56;;;;;;;;;;364143;145;857283;-59
2021/11/28 04:28:27;;;;;;;48.31;25.84;;;;;;;;;;365209;147;858252;-60
2021/11/28 04:29:28;;;;;;;49.53;26.10;;;;;;;;;;364714;147;864828;-60
2021/11/28 04:30:30;;;;;;;48.29;25.60;;;;;;;;;;363914;145;865942;-58
2021/11/28 04:31:32;;;;;;;49.64;25.69;;;;;;;;;;362916;146;857220;-58
2021/11/28 04:32:34;;;;;;;49.58;26.35;;;;;;;;;;364286;147;867600;-58
2021/11/28 04:33:35;;;;;;;48.80;25.83;;;;;;;;;;361342;146;864962;-58
2021/11/28 04:34:37;;;;;;;49.87;26.12;;;;;;;;;;367060;145;865095;-59
2021/11/28 04:35:38;;;;;;;48.67;26.13;;;;;;;;;;362823;146;865464;-59
2021/11/28 04:36:40;;;;;;;52.30;25.58;;;;;;;;;;364126;146;858314;-59
2021/11/28 04:37:42;;;;;;;51.49;25.31;;;;;;;;;;364673;145;865023;-59
2021/11/28 04:38:43;;;;;;;48.53;25.68;;;;;;;;;;363389;146;857573;-60
2021/11/28 04:39:45;;;;;;;56.16;28.69;;;;;;;;;;364839;147;864934;-59
2021/11/28 04:40:47;;;;;;;84.33;47.88;;;;;;;;;;365114;146;857727;-56
2021/11/28 04:41:48;;;;;;;78.11;42.79;;;;;;;;;;364222;145;858674;-58
2021/11/28 04:42:50;;;;;;;63.40;33.41;;;;;;;;;;365249;147;864990;-57
2021/11/28 04:43:52;;;;;;;57.28;28.94;;;;;;;;;;363183;145;865590;-56
2021/11/28 04:44:53;;;;;;;54.09;28.60;;;;;;;;;;363118;144;857337;-57
2021/11/28 04:45:55;;;;;;;49.79;27.11;;;;;;;;;;364173;145;865576;-58
2021/11/28 04:46:57;;;;;;;51.27;25.93;;;;;;;;;;361969;147;864906;-58
2021/11/28 04:47:58;;;;;;;50.84;26.99;;;;;;;;;;363634;146;857261;-60
2021/11/28 04:49:02;;;;;;;51.44;26.73;;;;;;;;;;362502;145;865543;-58
2021/11/28 04:50:08;;;;;;;48.06;26.21;;;;;;;;;;364820;147;857140;-59
2021/11/28 04:51:09;;;;;;;44.73;24.91;;;;;;;;;;364129;147;866629;-57
2021/11/28 04:52:11;;;;;;;41.69;24.64;;;;;;;;;;364025;145;857222;-59
2021/11/28 04:53:13;;;;;;;42.19;24.80;;;;;;;;;;364397;147;858881;-59
2021/11/28 04:54:15;;;;;;;44.16;24.49;;;;;;;;;;365056;146;865379;-58
2021/11/28 04:55:17;;;;;;;48.31;25.95;;;;;;;;;;363611;146;864963;-60
2021/11/28 04:56:19;;;;;;;46.83;25.11;;;;;;;;;;363683;145;857306;-59
2021/11/28 04:57:21;;;;;;;43.31;24.59;;;;;;;;;;364102;145;857222;-59
2021/11/28 04:58:22;;;;;;;39.21;22.04;;;;;;;;;;364163;145;859003;-58
2021/11/28 04:59:24;;;;;;;47.41;25.79;;;;;;;;;;364917;145;865205;-59
2021/11/28 05:00:26;;;;;;;39.13;21.78;;;;;;;;;;365185;145;864832;-59
2021/11/28 05:01:28;;;;;;;52.75;23.05;;;;;;;;;;361839;147;865753;-60
2021/11/28 05:02:30;;;;;;;43.23;22.81;;;;;;;;;;362291;145;857695;-59
2021/11/28 05:03:32;;;;;;;40.04;21.83;;;;;;;;;;362935;145;859245;-59
2021/11/28 05:04:33;;;;;;;44.66;22.31;;;;;;;;;;363224;146;864904;-59
2021/11/28 05:05:35;;;;;;;39.68;21.44;;;;;;;;;;364221;144;866572;-58
2021/11/28 05:06:37;;;;;;;41.29;21.26;;;;;;;;;;363243;145;864795;-60
2021/11/28 05:07:39;;;;;;;35.55;20.94;;;;;;;;;;364072;146;857835;-60
2021/11/28 05:08:40;;;;;;;41.00;23.39;;;;;;;;;;363416;146;858371;-59
2021/11/28 05:09:42;;;;;;;44.44;22.49;;;;;;;;;;362200;146;865187;-62
2021/11/28 05:10:43;;;;;;;46.36;22.28;;;;;;;;;;363232;145;864888;-61
2021/11/28 05:11:45;;;;;;;47.64;23.68;;;;;;;;;;364234;145;867365;-59
2021/11/28 05:12:47;;;;;;;47.06;24.41;;;;;;;;;;364907;144;865125;-58
2021/11/28 05:13:49;;;;;;;45.32;23.05;;;;;;;;;;362628;145;865450;-57
2021/11/28 05:14:53;;;;;;;45.55;23.69;;;;;;;;;;363291;146;857884;-58
2021/11/28 05:15:54;;;;;;;42.31;23.26;;;;;;;;;;363832;146;857222;-61
2021/11/28 05:16:56;;;;;;;48.48;24.74;;;;;;;;;;363693;145;857220;-57
2021/11/28 05:17:57;;;;;;;41.06;23.24;;;;;;;;;;362666;145;865104;-58
2021/11/28 05:18:59;;;;;;;41.98;23.56;;;;;;;;;;363185;145;858998;-59
2021/11/28 05:20:02;;;;;;;45.29;23.80;;;;;;;;;;363146;146;864848;-58
2021/11/28 05:21:03;;;;;;;44.43;22.97;;;;;;;;;;362807;145;857180;-57
2021/11/28 05:22:05;;;;;;;40.24;22.32;;;;;;;;;;362119;146;858744;-60
2021/11/28 05:23:06;;;;;;;42.10;22.51;;;;;;;;;;366393;145;857574;-60
2021/11/28 05:24:08;;;;;;;46.21;23.81;;;;;;;;;;363028;144;868435;-59
2021/11/28 05:25:10;;;;;;;38.07;22.00;;;;;;;;;;362945;146;865120;-62
2021/11/28 05:26:12;;;;;;;44.19;23.27;;;;;;;;;;363397;146;857262;-62
2021/11/28 05:27:14;;;;;;;42.63;23.19;;;;;;;;;;363577;147;857379;-64
2021/11/28 05:28:16;;;;;;;51.76;26.63;;;;;;;;;;359609;145;865028;-62
2021/11/28 05:29:18;;;;;;;46.69;26.43;;;;;;;;;;361152;146;860184;-61
2021/11/28 05:30:20;;;;;;;46.28;24.93;;;;;;;;;;363382;146;864974;-59
2021/11/28 05:31:22;;;;;;;52.59;27.02;;;;;;;;;;364009;145;857312;-58
2021/11/28 05:32:24;;;;;;;43.29;23.53;;;;;;;;;;363373;146;865348;-59
2021/11/28 05:33:25;;;;;;;53.76;26.70;;;;;;;;;;363439;145;865876;-57
2021/11/28 05:34:27;;;;;;;42.59;23.29;;;;;;;;;;362381;144;863688;-57
2021/11/28 05:35:28;;;;;;;46.39;24.61;;;;;;;;;;362990;146;866671;-58
2021/11/28 05:36:30;;;;;;;39.07;20.80;;;;;;;;;;364863;147;866055;-59
2021/11/28 05:37:32;;;;;;;41.39;21.92;;;;;;;;;;363084;146;857185;-59
2021/11/28 05:38:33;;;;;;;39.60;22.60;;;;;;;;;;361291;146;865577;-59
2021/11/28 05:39:35;;;;;;;41.32;22.19;;;;;;;;;;365773;147;864892;-56
2021/11/28 05:40:37;;;;;;;39.60;22.41;;;;;;;;;;361918;147;866557;-57
2021/11/28 05:41:38;;;;;;;41.64;22.87;;;;;;;;;;364508;145;864976;-59
2021/11/28 05:42:45;;;;;;;38.29;21.55;;;;;;;;;;360789;146;865483;-58
2021/11/28 05:43:46;;;;;;;41.45;21.89;;;;;;;;;;363858;146;864869;-62
2021/11/28 05:44:47;;;;;;;41.33;22.91;;;;;;;;;;364833;145;859478;-59
2021/11/28 05:45:48;;;;;;;40.77;22.09;;;;;;;;;;365522;145;858782;-61
2021/11/28 05:46:50;;;;;;;39.14;20.72;;;;;;;;;;364900;147;865947;-59
2021/11/28 05:47:52;;;;;;;43.17;23.16;;;;;;;;;;361828;146;864820;-59
2021/11/28 05:48:53;;;;;;;39.92;22.73;;;;;;;;;;363546;144;867964;-59
2021/11/28 05:49:55;;;;;;;40.77;22.14;;;;;;;;;;363602;145;857255;-59
2021/11/28 05:50:57;;;;;;;43.51;21.68;;;;;;;;;;359007;147;865547;-59
2021/11/28 05:51:58;;;;;;;43.83;22.71;;;;;;;;;;362725;144;865013;-59
2021/11/28 05:53:00;;;;;;;42.76;22.81;;;;;;;;;;362268;145;864867;-59
2021/11/28 05:54:02;;;;;;;40.73;22.27;;;;;;;;;;363249;146;866685;-59
2021/11/28 05:55:04;;;;;;;42.91;23.01;;;;;;;;;;366468;146;858468;-59
2021/11/28 05:56:06;;;;;;;43.84;23.51;;;;;;;;;;364865;145;859318;-59
2021/11/28 05:57:08;;;;;;;49.45;24.09;;;;;;;;;;361301;147;864965;-59
2021/11/28 05:58:09;;;;;;;45.34;23.51;;;;;;;;;;363387;146;866450;-59
2021/11/28 05:59:11;;;;;;;46.01;24.27;;;;;;;;;;362724;146;857486;-60
2021/11/28 06:00:15;;;;;;;45.12;23.13;;;;;;;;;;364581;145;858418;-59
2021/11/28 06:01:17;;;;;;;38.60;22.41;;;;;;;;;;365318;146;857170;-59